createdAt,value
2018-09-09T00:00:22.846Z,13.60
2018-09-09T00:02:51.960Z,13.13
2018-09-09T00:05:21.560Z,12.60
2018-09-09T00:07:50.506Z,13.22
2018-09-09T00:10:19.458Z,12.13
2018-09-09T00:12:48.399Z,12.98
2018-09-09T00:15:17.486Z,12.40
2018-09-09T00:17:46.458Z,12.55
2018-09-09T00:20:15.506Z,13.53
2018-09-09T00:22:44.460Z,12.95
2018-09-09T00:25:13.439Z,12.28
2018-09-09T00:27:42.411Z,11.63
2018-09-09T00:30:11.418Z,12.05
2018-09-09T00:32:40.481Z,11.50
2018-09-09T00:35:09.474Z,11.30
2018-09-09T00:37:38.520Z,11.68
2018-09-09T00:40:07.514Z,10.68
2018-09-09T00:42:36.500Z,11.10
2018-09-09T00:45:05.796Z,11.60
2018-09-09T00:47:34.812Z,11.65
2018-09-09T00:50:09.124Z,11.18
2018-09-09T00:52:43.447Z,11.20
2018-09-09T00:55:12.454Z,11.28
2018-09-09T00:57:41.589Z,10.80
2018-09-09T01:00:10.564Z,11.30
2018-09-09T01:02:39.665Z,10.28
2018-09-09T01:05:09.105Z,10.88
2018-09-09T01:07:38.057Z,10.32
2018-09-09T01:10:07.102Z,10.93
2018-09-09T01:12:36.052Z,11.25
2018-09-09T01:15:05.775Z,9.95
2018-09-09T01:17:34.816Z,10.70
2018-09-09T01:20:04.177Z,10.23
2018-09-09T01:22:33.140Z,10.05
2018-09-09T01:25:02.093Z,9.58
2018-09-09T01:27:31.058Z,9.80
2018-09-09T01:30:00.073Z,10.43
2018-09-09T01:32:29.049Z,9.80
2018-09-09T01:34:58.029Z,9.33
2018-09-09T01:37:26.987Z,9.95
2018-09-09T01:39:56.426Z,8.90
2018-09-09T01:42:25.391Z,8.60
2018-09-09T01:44:54.357Z,9.08
2018-09-09T01:47:23.612Z,9.30
2018-09-09T01:49:52.753Z,9.55
2018-09-09T01:52:21.691Z,8.98
2018-09-09T01:54:50.883Z,9.13
2018-09-09T01:57:19.813Z,8.75
2018-09-09T01:59:48.878Z,8.30
2018-09-09T02:02:17.999Z,8.10
2018-09-09T02:04:47.575Z,8.28
2018-09-09T02:07:17.373Z,9.40
2018-09-09T02:09:46.281Z,8.83
2018-09-09T02:12:15.249Z,8.75
2018-09-09T02:14:44.193Z,8.73
2018-09-09T02:17:13.278Z,8.85
2018-09-09T02:19:42.235Z,8.15
2018-09-09T02:22:11.183Z,7.83
2018-09-09T02:24:40.112Z,8.00
2018-09-09T02:27:09.056Z,8.58
2018-09-09T02:29:38.081Z,7.95
2018-09-09T02:32:07.122Z,8.10
2018-09-09T02:34:36.068Z,7.87
2018-09-09T02:37:05.023Z,8.18
2018-09-09T02:39:34.329Z,7.92
2018-09-09T02:42:03.268Z,8.50
2018-09-09T02:44:32.185Z,8.23
2018-09-09T02:47:01.133Z,9.95
2018-09-09T02:49:30.058Z,8.53
2018-09-09T02:51:59.064Z,8.43
2018-09-09T02:54:28.006Z,8.40
2018-09-09T02:56:56.926Z,8.00
2018-09-09T02:59:25.838Z,8.33
2018-09-09T03:01:54.864Z,8.78
2018-09-09T03:04:23.784Z,8.48
2018-09-09T03:06:52.722Z,8.40
2018-09-09T03:09:21.704Z,8.85
2018-09-09T03:11:50.607Z,8.53
2018-09-09T03:14:19.542Z,8.45
2018-09-09T03:16:48.483Z,9.05
2018-09-09T03:19:17.590Z,9.45
2018-09-09T03:21:46.532Z,9.00
2018-09-09T03:24:15.428Z,8.03
2018-09-09T03:26:44.342Z,8.70
2018-09-09T03:29:13.374Z,8.25
2018-09-09T03:31:42.506Z,8.23
2018-09-09T03:34:11.440Z,8.50
2018-09-09T03:36:40.374Z,8.25
2018-09-09T03:39:10.152Z,8.03
2018-09-09T03:41:39.345Z,9.48
2018-09-09T03:44:08.260Z,7.90
2018-09-09T03:46:37.525Z,8.25
2018-09-09T03:49:06.530Z,8.23
2018-09-09T03:51:35.464Z,7.37
2018-09-09T03:54:04.775Z,7.50
2018-09-09T03:56:33.759Z,8.55
2018-09-09T03:59:03.028Z,8.83
2018-09-09T04:01:31.955Z,8.95
2018-09-09T04:04:01.017Z,10.43
2018-09-09T04:06:30.061Z,9.28
2018-09-09T04:08:59.095Z,9.15
2018-09-09T04:11:28.067Z,8.68
2018-09-09T04:13:57.031Z,8.13
2018-09-09T04:16:25.958Z,8.58
2018-09-09T04:18:54.879Z,8.75
2018-09-09T04:21:23.803Z,8.40
2018-09-09T04:23:52.793Z,8.60
2018-09-09T04:26:21.729Z,8.15
2018-09-09T04:28:50.730Z,8.90
2018-09-09T04:31:19.653Z,9.15
2018-09-09T04:33:48.693Z,8.70
2018-09-09T04:36:17.810Z,9.78
2018-09-09T04:38:46.737Z,8.45
2018-09-09T04:41:15.670Z,8.25
2018-09-09T04:43:44.617Z,8.28
2018-09-09T04:46:13.657Z,8.45
2018-09-09T04:48:42.750Z,7.97
2018-09-09T04:51:11.668Z,8.15
2018-09-09T04:53:40.720Z,8.38
2018-09-09T04:56:09.658Z,8.25
2018-09-09T04:58:38.651Z,7.50
2018-09-09T05:01:07.598Z,7.97
2018-09-09T05:03:36.536Z,9.00
2018-09-09T05:06:05.506Z,8.30
2018-09-09T05:08:34.450Z,7.47
2018-09-09T05:11:03.469Z,7.30
2018-09-09T05:13:32.370Z,7.42
2018-09-09T05:16:01.286Z,7.22
2018-09-09T05:18:30.605Z,7.03
2018-09-09T05:20:59.693Z,6.75
2018-09-09T05:23:28.614Z,6.65
2018-09-09T05:25:57.556Z,6.03
2018-09-09T05:28:26.535Z,6.60
2018-09-09T05:30:55.809Z,6.45
2018-09-09T05:33:24.740Z,6.60
2018-09-09T05:35:53.628Z,6.55
2018-09-09T05:38:22.674Z,6.00
2018-09-09T05:40:51.818Z,6.05
2018-09-09T05:43:20.720Z,5.97
2018-09-09T05:45:49.628Z,5.55
2018-09-09T05:48:18.560Z,5.37
2018-09-09T05:50:48.051Z,5.90
2018-09-09T05:53:16.994Z,5.40
2018-09-09T05:55:45.921Z,6.00
2018-09-09T05:58:14.886Z,5.50
2018-09-09T06:00:43.798Z,5.40
2018-09-09T06:03:12.865Z,4.92
2018-09-09T06:05:42.009Z,6.05
2018-09-09T06:08:11.099Z,5.90
2018-09-09T06:10:40.311Z,5.62
2018-09-09T06:13:09.245Z,5.97
2018-09-09T06:15:38.161Z,5.53
2018-09-09T06:18:06.989Z,6.15
2018-09-09T06:20:36.001Z,6.30
2018-09-09T06:23:05.343Z,6.08
2018-09-09T06:25:34.271Z,6.22
2018-09-09T06:28:03.191Z,6.03
2018-09-09T06:30:32.139Z,6.62
2018-09-09T06:33:01.160Z,5.67
2018-09-09T06:35:30.236Z,6.25
2018-09-09T06:37:59.275Z,5.78
2018-09-09T06:40:28.233Z,6.72
2018-09-09T06:42:57.349Z,5.67
2018-09-09T06:45:26.313Z,6.12
2018-09-09T06:47:55.306Z,5.90
2018-09-09T06:50:24.345Z,5.72
2018-09-09T06:52:53.409Z,6.00
2018-09-09T06:55:22.524Z,5.55
2018-09-09T06:57:51.668Z,5.80
2018-09-09T07:00:20.721Z,5.25
2018-09-09T07:02:49.671Z,5.40
2018-09-09T07:05:18.594Z,5.35
2018-09-09T07:07:47.620Z,5.37
2018-09-09T07:10:16.766Z,5.30
2018-09-09T07:12:45.778Z,5.12
2018-09-09T07:15:14.689Z,5.12
2018-09-09T07:17:43.678Z,5.00
2018-09-09T07:20:12.628Z,5.40
2018-09-09T07:22:41.713Z,5.45
2018-09-09T07:25:10.689Z,5.12
2018-09-09T07:27:39.656Z,5.30
2018-09-09T07:30:08.644Z,5.25
2018-09-09T07:32:37.735Z,5.78
2018-09-09T07:35:06.699Z,5.37
2018-09-09T07:37:35.705Z,4.92
2018-09-09T07:40:04.723Z,5.53
2018-09-09T07:42:33.667Z,5.28
2018-09-09T07:45:02.593Z,5.50
2018-09-09T07:47:31.601Z,5.55
2018-09-09T07:50:00.545Z,5.00
2018-09-09T07:52:29.457Z,5.62
2018-09-09T07:54:58.387Z,5.17
2018-09-09T07:57:27.376Z,5.00
2018-09-09T07:59:56.278Z,5.22
2018-09-09T08:02:25.314Z,4.90
2018-09-09T08:04:54.700Z,5.60
2018-09-09T08:07:23.611Z,5.05
2018-09-09T08:09:52.535Z,5.33
2018-09-09T08:12:21.469Z,5.08
2018-09-09T08:14:50.448Z,4.75
2018-09-09T08:17:19.494Z,5.00
2018-09-09T08:19:48.460Z,5.25
2018-09-09T08:22:17.620Z,6.05
2018-09-09T08:24:46.575Z,4.75
2018-09-09T08:27:15.501Z,4.70
2018-09-09T08:29:44.494Z,4.50
2018-09-09T08:32:13.440Z,4.70
2018-09-09T08:34:42.446Z,4.40
2018-09-09T08:37:11.549Z,4.33
2018-09-09T08:39:40.487Z,4.10
2018-09-09T08:42:09.461Z,4.42
2018-09-09T08:44:38.616Z,4.40
2018-09-09T08:47:07.702Z,4.33
2018-09-09T08:49:36.624Z,4.05
2018-09-09T08:52:05.663Z,4.30
2018-09-09T08:54:34.846Z,4.20
2018-09-09T08:57:03.803Z,4.15
2018-09-09T08:59:32.782Z,4.17
2018-09-09T09:02:01.717Z,3.83
2018-09-09T09:04:30.769Z,3.60
2018-09-09T09:06:59.672Z,3.35
2018-09-09T09:09:28.677Z,4.00
2018-09-09T09:11:58.104Z,3.83
2018-09-09T09:14:27.053Z,3.22
2018-09-09T09:16:56.053Z,3.60
2018-09-09T09:19:25.012Z,3.87
2018-09-09T09:21:54.105Z,3.87
2018-09-09T09:24:23.013Z,3.40
2018-09-09T09:26:52.151Z,3.42
2018-09-09T09:29:21.303Z,3.30
2018-09-09T09:31:50.422Z,2.90
2018-09-09T09:34:19.321Z,2.87
2018-09-09T09:36:48.234Z,3.05
2018-09-09T09:39:16.903Z,2.97
2018-09-09T09:41:45.766Z,2.60
2018-09-09T09:44:14.633Z,2.63
2018-09-09T09:46:43.257Z,2.70
2018-09-09T09:49:12.607Z,2.70
2018-09-09T09:51:41.784Z,2.60
2018-09-09T09:54:10.431Z,2.80
2018-09-09T09:56:39.076Z,2.33
2018-09-09T09:59:08.114Z,2.23
2018-09-09T10:01:36.808Z,2.40
2018-09-09T10:04:05.816Z,2.67
2018-09-09T10:06:34.591Z,2.30
2018-09-09T10:09:04.035Z,2.70
2018-09-09T10:11:32.971Z,2.30
2018-09-09T10:14:01.616Z,2.30
2018-09-09T10:16:30.249Z,2.00
2018-09-09T10:18:58.888Z,2.20
2018-09-09T10:21:27.547Z,1.87
2018-09-09T10:23:56.328Z,2.00
2018-09-09T10:26:25.086Z,2.40
2018-09-09T10:28:53.726Z,1.87
2018-09-09T10:31:22.424Z,2.80
2018-09-09T10:33:51.058Z,2.20
2018-09-09T10:36:19.722Z,2.27
2018-09-09T10:38:48.386Z,2.60
2018-09-09T10:41:17.481Z,2.20
2018-09-09T10:43:46.109Z,2.20
2018-09-09T10:46:14.912Z,2.10
2018-09-09T10:48:43.683Z,2.30
2018-09-09T10:51:12.451Z,2.17
2018-09-09T10:53:41.384Z,1.85
2018-09-09T10:56:10.026Z,1.80
2018-09-09T10:58:39.470Z,1.80
2018-09-09T11:01:08.480Z,1.93
2018-09-09T11:03:37.504Z,2.02
2018-09-09T11:06:06.470Z,2.03
2018-09-09T11:08:35.795Z,1.70
2018-09-09T11:11:05.503Z,1.72
2018-09-09T11:13:34.438Z,1.50
2018-09-09T11:16:03.080Z,1.57
2018-09-09T11:18:32.014Z,1.57
2018-09-09T11:21:00.616Z,1.63
2018-09-09T11:23:29.263Z,1.80
2018-09-09T11:25:57.915Z,1.60
2018-09-09T11:28:27.025Z,1.50
2018-09-09T11:30:55.947Z,1.50
2018-09-09T11:33:24.905Z,1.52
2018-09-09T11:35:53.860Z,1.30
2018-09-09T11:38:22.823Z,1.52
2018-09-09T11:40:51.920Z,1.40
2018-09-09T11:43:20.633Z,1.50
2018-09-09T11:45:49.813Z,1.32
2018-09-09T11:48:18.857Z,1.90
2018-09-09T11:50:47.766Z,1.32
2018-09-09T11:53:16.784Z,1.32
2018-09-09T11:55:45.983Z,1.20
2018-09-09T11:58:14.919Z,1.50
2018-09-09T12:00:43.890Z,1.32
2018-09-09T12:03:12.874Z,1.40
2018-09-09T12:05:41.917Z,1.40
2018-09-09T12:08:10.590Z,1.23
2018-09-09T12:10:39.234Z,1.43
2018-09-09T12:13:08.005Z,1.47
2018-09-09T12:15:36.971Z,1.50
2018-09-09T12:18:06.389Z,1.30
2018-09-09T12:20:35.038Z,1.30
2018-09-09T12:23:03.830Z,1.20
2018-09-09T12:25:32.471Z,1.20
2018-09-09T12:28:01.171Z,1.43
2018-09-09T12:30:29.835Z,1.30
2018-09-09T12:32:58.735Z,1.30
2018-09-09T12:35:27.369Z,1.40
2018-09-09T12:37:56.325Z,1.67
2018-09-09T12:40:25.101Z,1.07
2018-09-09T12:42:59.228Z,1.30
2018-09-09T12:45:33.316Z,1.47
2018-09-09T12:48:07.398Z,1.10
2018-09-09T12:50:36.208Z,1.50
2018-09-09T12:53:04.980Z,1.33
2018-09-09T12:55:33.693Z,1.07
2018-09-09T12:58:02.312Z,1.20
2018-09-09T13:00:30.964Z,0.97
2018-09-09T13:02:59.908Z,1.27
2018-09-09T13:05:28.546Z,1.13
2018-09-09T13:07:57.277Z,1.10
2018-09-09T13:10:26.017Z,1.20
2018-09-09T13:13:00.057Z,1.23
2018-09-09T13:15:28.700Z,1.37
2018-09-09T13:17:57.699Z,1.00
2018-09-09T13:20:26.336Z,1.20
2018-09-09T13:22:54.968Z,1.20
2018-09-09T13:25:23.682Z,1.10
2018-09-09T13:27:52.406Z,1.30
2018-09-09T13:30:21.464Z,1.17
2018-09-09T13:32:50.135Z,1.60
2018-09-09T13:35:18.862Z,1.50
2018-09-09T13:37:47.512Z,1.10
2018-09-09T13:40:16.587Z,1.20
2018-09-09T13:42:45.392Z,1.30
2018-09-09T13:45:14.438Z,1.20
2018-09-09T13:47:43.727Z,1.10
2018-09-09T13:50:13.072Z,1.03
2018-09-09T13:52:41.733Z,1.20
2018-09-09T13:55:10.619Z,0.90
2018-09-09T13:57:39.414Z,1.50
2018-09-09T14:00:08.154Z,1.30
2018-09-09T14:02:36.853Z,1.10
2018-09-09T14:05:05.576Z,1.00
2018-09-09T14:07:34.206Z,1.30
2018-09-09T14:10:02.926Z,1.07
2018-09-09T14:12:31.600Z,1.20
2018-09-09T14:15:00.346Z,1.00
2018-09-09T14:17:28.987Z,1.00
2018-09-09T14:19:57.657Z,1.00
2018-09-09T14:22:26.429Z,1.30
2018-09-09T14:24:55.204Z,0.97
2018-09-09T14:27:23.890Z,0.93
2018-09-09T14:29:52.876Z,1.30
2018-09-09T14:32:21.518Z,1.00
2018-09-09T14:34:50.174Z,1.10
2018-09-09T14:37:18.801Z,1.20
2018-09-09T14:39:47.429Z,1.00
2018-09-09T14:42:16.110Z,0.80
2018-09-09T14:44:44.758Z,0.93
2018-09-09T14:47:13.387Z,1.27
2018-09-09T14:49:42.071Z,1.03
2018-09-09T14:52:10.756Z,1.20
2018-09-09T14:54:39.426Z,1.10
2018-09-09T14:57:08.386Z,1.07
2018-09-09T14:59:37.082Z,1.10
2018-09-09T15:02:05.836Z,1.10
2018-09-09T15:04:34.552Z,1.00
2018-09-09T15:07:03.218Z,1.20
2018-09-09T15:09:31.950Z,1.20
2018-09-09T15:12:00.730Z,3.10
2018-09-09T15:14:29.398Z,1.50
2018-09-09T15:16:58.018Z,1.20
2018-09-09T15:19:26.678Z,1.23
2018-09-09T15:21:56.280Z,1.20
2018-09-09T15:24:24.944Z,1.33
2018-09-09T15:26:53.745Z,1.10
2018-09-09T15:29:22.530Z,1.00
2018-09-09T15:31:51.340Z,1.20
2018-09-09T15:34:19.989Z,1.13
2018-09-09T15:36:49.034Z,1.13
2018-09-09T15:39:18.081Z,1.10
2018-09-09T15:41:46.882Z,1.30
2018-09-09T15:44:15.596Z,1.33
2018-09-09T15:46:44.332Z,1.10
2018-09-09T15:49:13.032Z,1.00
2018-09-09T15:51:41.705Z,1.23
2018-09-09T15:54:10.518Z,1.50
2018-09-09T15:56:41.295Z,1.50
2018-09-09T15:59:10.000Z,1.40
2018-09-09T16:01:38.658Z,1.10
2018-09-09T16:04:07.307Z,1.60
2018-09-09T16:06:36.290Z,1.23
2018-09-09T16:09:07.461Z,1.30
2018-09-09T16:11:36.096Z,1.03
2018-09-09T16:14:04.756Z,1.10
2018-09-09T16:16:33.595Z,1.30
2018-09-09T16:19:02.694Z,1.60
2018-09-09T16:21:31.489Z,1.30
2018-09-09T16:24:00.421Z,1.37
2018-09-09T16:26:29.061Z,1.30
2018-09-09T16:28:57.899Z,1.50
2018-09-09T16:31:26.598Z,1.53
2018-09-09T16:33:55.343Z,1.60
2018-09-09T16:36:23.997Z,1.23
2018-09-09T16:38:52.621Z,1.17
2018-09-09T16:41:21.641Z,1.20
2018-09-09T16:43:50.818Z,1.50
2018-09-09T16:46:19.526Z,1.67
2018-09-09T16:48:48.273Z,1.50
2018-09-09T16:51:17.000Z,1.50
2018-09-09T16:53:45.923Z,2.23
2018-09-09T16:56:14.702Z,1.83
2018-09-09T16:58:43.912Z,1.80
2018-09-09T17:01:13.081Z,2.20
2018-09-09T17:03:41.908Z,2.00
2018-09-09T17:06:10.590Z,1.93
2018-09-09T17:08:39.234Z,1.90
2018-09-09T17:11:08.102Z,2.30
2018-09-09T17:13:36.873Z,2.03
2018-09-09T17:16:05.504Z,2.40
2018-09-09T17:18:34.126Z,2.50
2018-09-09T17:21:02.948Z,2.67
2018-09-09T17:23:31.622Z,2.73
2018-09-09T17:26:01.221Z,2.57
2018-09-09T17:28:29.884Z,2.40
2018-09-09T17:30:58.682Z,2.50
2018-09-09T17:33:27.461Z,2.20
2018-09-09T17:35:56.081Z,2.50
2018-09-09T17:38:24.745Z,2.57
2018-09-09T17:40:53.416Z,2.93
2018-09-09T17:43:22.080Z,2.50
2018-09-09T17:45:50.899Z,2.77
2018-09-09T17:48:19.547Z,2.47
2018-09-09T17:50:48.191Z,2.50
2018-09-09T17:53:16.841Z,2.07
2018-09-09T17:55:45.511Z,2.90
2018-09-09T17:58:14.161Z,2.70
2018-09-09T18:00:43.490Z,3.27
2018-09-09T18:03:12.168Z,2.50
2018-09-09T18:05:40.838Z,2.80
2018-09-09T18:08:10.721Z,2.70
2018-09-09T18:10:39.671Z,2.90
2018-09-09T18:13:08.321Z,3.53
2018-09-09T18:15:37.265Z,3.45
2018-09-09T18:18:06.303Z,3.40
2018-09-09T18:20:35.674Z,3.80
2018-09-09T18:23:04.785Z,3.77
2018-09-09T18:25:33.829Z,4.12
2018-09-09T18:28:02.845Z,3.83
2018-09-09T18:30:31.762Z,4.22
2018-09-09T18:33:00.903Z,4.40
2018-09-09T18:35:29.858Z,4.37
2018-09-09T18:37:59.029Z,4.97
2018-09-09T18:40:27.969Z,4.65
2018-09-09T18:42:56.966Z,4.90
2018-09-09T18:45:26.182Z,5.30
2018-09-09T18:47:55.397Z,5.05
2018-09-09T18:50:24.470Z,5.10
2018-09-09T18:52:53.788Z,5.30
2018-09-09T18:55:22.808Z,4.87
2018-09-09T18:57:51.830Z,4.90
2018-09-09T19:00:20.908Z,4.60
2018-09-09T19:02:49.908Z,5.10
2018-09-09T19:05:19.188Z,4.83
2018-09-09T19:07:48.142Z,5.20
2018-09-09T19:10:17.322Z,4.62
2018-09-09T19:12:46.399Z,5.30
2018-09-09T19:15:15.370Z,4.80
2018-09-09T19:17:44.328Z,5.17
2018-09-09T19:20:13.415Z,4.95
2018-09-09T19:22:42.442Z,5.08
2018-09-09T19:25:11.552Z,4.65
2018-09-09T19:27:40.512Z,5.42
2018-09-09T19:30:10.390Z,5.67
2018-09-09T19:32:45.834Z,8.63
2018-09-09T19:35:14.804Z,7.92
2018-09-09T19:37:43.856Z,6.40
2018-09-09T19:40:12.813Z,5.92
2018-09-09T19:42:41.758Z,5.70
2018-09-09T19:45:10.733Z,5.70
2018-09-09T19:47:40.461Z,5.45
2018-09-09T19:50:09.806Z,5.50
2018-09-09T19:52:38.761Z,5.28
2018-09-09T19:55:07.838Z,4.62
2018-09-09T19:57:36.831Z,4.80
2018-09-09T20:00:05.945Z,4.75
2018-09-09T20:02:35.269Z,4.50
2018-09-09T20:05:04.939Z,5.00
2018-09-09T20:07:33.917Z,5.20
2018-09-09T20:10:02.907Z,5.37
2018-09-09T20:12:31.885Z,4.97
2018-09-09T20:15:00.965Z,5.05
2018-09-09T20:17:30.147Z,5.08
2018-09-09T20:19:59.088Z,5.08
2018-09-09T20:22:28.053Z,4.62
2018-09-09T20:24:57.012Z,4.85
2018-09-09T20:27:25.987Z,4.67
2018-09-09T20:29:54.871Z,4.53
2018-09-09T20:32:23.825Z,4.28
2018-09-09T20:34:52.965Z,4.75
2018-09-09T20:37:22.219Z,4.83
2018-09-09T20:39:51.211Z,5.37
2018-09-09T20:42:20.143Z,5.05
2018-09-09T20:44:49.267Z,5.40
2018-09-09T20:47:18.353Z,4.95
2018-09-09T20:49:47.293Z,5.17
2018-09-09T20:52:16.255Z,5.00
2018-09-09T20:54:45.207Z,5.35
2018-09-09T20:57:14.313Z,5.22
2018-09-09T20:59:43.257Z,5.03
2018-09-09T21:02:12.278Z,5.97
2018-09-09T21:04:41.213Z,5.75
2018-09-09T21:07:10.241Z,5.30
2018-09-09T21:09:39.644Z,5.25
2018-09-09T21:12:08.774Z,4.55
2018-09-09T21:14:38.086Z,4.78
2018-09-09T21:17:07.542Z,4.60
2018-09-09T21:19:36.495Z,4.67
2018-09-09T21:22:05.608Z,4.65
2018-09-09T21:24:34.561Z,4.55
2018-09-09T21:27:03.492Z,4.90
2018-09-09T21:29:32.458Z,5.55
2018-09-09T21:32:01.454Z,5.83
2018-09-09T21:34:30.359Z,6.20
2018-09-09T21:36:59.315Z,4.78
2018-09-09T21:39:28.254Z,5.22
2018-09-09T21:41:57.206Z,4.95
2018-09-09T21:44:26.152Z,4.90
2018-09-09T21:46:55.048Z,5.42
2018-09-09T21:49:23.980Z,5.50
2018-09-09T21:51:52.964Z,4.75
2018-09-09T21:54:22.267Z,4.87
2018-09-09T21:56:51.195Z,5.30
2018-09-09T21:59:20.087Z,5.03
2018-09-09T22:01:54.713Z,5.17
2018-09-09T22:04:23.775Z,5.10
2018-09-09T22:06:52.726Z,5.20
2018-09-09T22:09:21.651Z,5.37
2018-09-09T22:11:50.599Z,5.60
2018-09-09T22:14:19.659Z,5.50
2018-09-09T22:16:48.584Z,4.92
2018-09-09T22:19:17.507Z,5.40
2018-09-09T22:21:48.489Z,5.62
2018-09-09T22:24:19.416Z,5.50
2018-09-09T22:26:48.720Z,5.50
2018-09-09T22:29:17.768Z,5.28
2018-09-09T22:31:46.679Z,5.00
2018-09-09T22:34:16.019Z,5.45
2018-09-09T22:36:44.980Z,5.20
2018-09-09T22:39:13.960Z,5.37
2018-09-09T22:41:42.866Z,5.22
2018-09-09T22:44:12.826Z,5.05
2018-09-09T22:46:42.722Z,5.15
2018-09-09T22:49:11.706Z,5.40
2018-09-09T22:51:40.679Z,5.33
2018-09-09T22:54:10.085Z,4.67
2018-09-09T22:56:39.026Z,5.37
2018-09-09T22:59:07.970Z,4.85
2018-09-09T23:01:37.398Z,5.42
2018-09-09T23:04:06.337Z,5.10
2018-09-09T23:06:35.257Z,5.58
2018-09-09T23:09:06.588Z,4.58
2018-09-09T23:11:35.565Z,5.58
2018-09-09T23:14:04.565Z,5.75
2018-09-09T23:16:33.512Z,4.92
2018-09-09T23:19:02.439Z,4.92
2018-09-09T23:21:31.489Z,5.47
2018-09-09T23:24:00.549Z,4.95
2018-09-09T23:26:29.597Z,5.45
2018-09-09T23:28:58.524Z,5.30
2018-09-09T23:31:27.463Z,4.87
2018-09-09T23:33:56.377Z,5.20
2018-09-09T23:36:25.303Z,5.05
2018-09-09T23:38:54.245Z,4.97
2018-09-09T23:41:23.241Z,4.90
2018-09-09T23:43:52.538Z,5.22
2018-09-09T23:46:21.536Z,5.20
2018-09-09T23:48:50.592Z,5.25
2018-09-09T23:51:19.522Z,5.00
2018-09-09T23:53:48.502Z,5.00
2018-09-09T23:56:17.553Z,5.42
2018-09-09T23:58:46.854Z,4.53
